Time;durP1;ratioP1;P1;durP2;ratioP2;P2;SDS_P1;SDS_P2;PMS_P1;PMS_P2;Temp;Humidity;BMP_temperature;BMP_pressure;BME280_temperature;BME280_humidity;BME280_pressure;Samples;Min_cycle;Max_cycle;Signal;HPM_P1;HPM_P2
2021/11/15 00:00:55;;;;;;;7.10;6.40;;;12.00;99.90;;;;;;5034524;28;20593;-78
2021/11/15 00:03:23;;;;;;;6.15;5.53;;;12.00;99.90;;;;;;5033956;28;20568;-77
2021/11/15 00:05:49;;;;;;;6.25;5.65;;;12.00;99.90;;;;;;5034010;28;20165;-77
2021/11/15 00:08:15;;;;;;;7.20;6.00;;;11.90;99.90;;;;;;5032786;28;20205;-78
2021/11/15 00:10:41;;;;;;;7.23;6.40;;;11.90;99.90;;;;;;5032749;28;20233;-78
2021/11/15 00:13:07;;;;;;;7.63;6.82;;;11.90;99.90;;;;;;5016040;28;21191;-77
2021/11/15 00:15:34;;;;;;;7.20;6.40;;;11.90;99.90;;;;;;5034328;28;20549;-77
2021/11/15 00:18:00;;;;;;;9.05;6.70;;;12.00;99.90;;;;;;5032616;28;20181;-77
2021/11/15 00:20:27;;;;;;;6.70;5.97;;;12.00;99.90;;;;;;5033864;28;20211;-83
2021/11/15 00:22:53;;;;;;;6.90;6.20;;;12.00;99.90;;;;;;5032909;28;20191;-83
2021/11/15 00:25:19;;;;;;;6.95;6.25;;;12.00;99.90;;;;;;5032995;28;20232;-83
2021/11/15 00:27:45;;;;;;;8.90;8.02;;;12.00;99.90;;;;;;5032951;28;20166;-78
2021/11/15 00:30:13;;;;;;;6.25;5.65;;;11.90;99.90;;;;;;5033578;28;20201;-77
2021/11/15 00:32:39;;;;;;;6.55;5.43;;;11.90;99.90;;;;;;5020724;28;20707;-77
2021/11/15 00:35:07;;;;;;;6.13;5.43;;;11.90;99.90;;;;;;5033572;28;20186;-78
2021/11/15 00:37:33;;;;;;;6.93;6.28;;;11.90;99.90;;;;;;5033353;28;20158;-77
2021/11/15 00:39:59;;;;;;;6.45;5.85;;;11.90;99.90;;;;;;5032053;28;20704;-77
2021/11/15 00:42:25;;;;;;;7.85;6.55;;;11.90;99.90;;;;;;5032481;28;20174;-77
2021/11/15 00:44:51;;;;;;;6.67;6.00;;;11.90;99.90;;;;;;5033455;28;20165;-77
2021/11/15 00:47:17;;;;;;;10.77;6.60;;;11.90;99.90;;;;;;5031902;28;20170;-77
2021/11/15 00:49:43;;;;;;;6.70;6.03;;;11.90;99.90;;;;;;5033496;28;20288;-77
2021/11/15 00:52:09;;;;;;;6.65;5.93;;;11.90;99.90;;;;;;5005885;28;20182;-77
2021/11/15 00:54:35;;;;;;;8.97;6.50;;;11.90;99.90;;;;;;5033372;28;20526;-77
2021/11/15 00:57:03;;;;;;;7.47;6.40;;;11.90;99.90;;;;;;5033001;28;20213;-77
2021/11/15 00:59:29;;;;;;;7.78;6.32;;;11.90;99.90;;;;;;5032936;28;20598;-77
2021/11/15 01:01:56;;;;;;;7.75;6.95;;;11.90;99.90;;;;;;5015290;28;20177;-77
2021/11/15 01:04:22;;;;;;;8.75;7.35;;;11.90;99.90;;;;;;5031876;28;20224;-77
2021/11/15 01:06:48;;;;;;;7.90;7.20;;;12.00;99.90;;;;;;5032497;28;20178;-78
2021/11/15 01:09:13;;;;;;;6.40;5.80;;;12.00;99.90;;;;;;5035597;28;20189;-78
2021/11/15 01:11:39;;;;;;;5.97;5.33;;;12.00;99.90;;;;;;5033339;28;20626;-78
2021/11/15 01:14:05;;;;;;;10.20;6.80;;;12.00;99.90;;;;;;5014880;28;20177;-78
2021/11/15 01:16:30;;;;;;;6.03;5.47;;;12.00;99.90;;;;;;5031517;28;20272;-78
2021/11/15 01:18:56;;;;;;;6.70;6.10;;;12.00;99.90;;;;;;5031358;28;20232;-78
2021/11/15 01:21:27;;;;;;;9.23;7.43;;;12.00;99.90;;;;;;5031775;28;20181;-78
2021/11/15 01:23:54;;;;;;;6.88;6.18;;;12.00;99.90;;;;;;5032433;28;21363;-77
2021/11/15 01:26:20;;;;;;;7.72;7.03;;;12.00;99.90;;;;;;5031520;28;20252;-77
2021/11/15 01:28:47;;;;;;;7.00;6.13;;;12.00;99.90;;;;;;5032899;28;20201;-78
2021/11/15 01:31:13;;;;;;;6.97;6.28;;;11.90;99.90;;;;;;5015751;28;20566;-78
2021/11/15 01:33:39;;;;;;;6.57;5.88;;;11.90;99.90;;;;;;5032844;28;20169;-77
2021/11/15 01:36:05;;;;;;;7.10;6.40;;;12.00;99.90;;;;;;5031821;28;21076;-77
2021/11/15 01:38:33;;;;;;;6.20;5.60;;;12.00;99.90;;;;;;5032582;28;20656;-77
2021/11/15 01:41:00;;;;;;;7.90;7.03;;;12.00;99.90;;;;;;5031040;28;20177;-77
2021/11/15 01:43:26;;;;;;;6.43;5.78;;;12.00;99.90;;;;;;5032434;28;20240;-77
2021/11/15 01:45:53;;;;;;;7.05;6.43;;;12.00;99.90;;;;;;5035548;28;20594;-77
2021/11/15 01:48:19;;;;;;;6.45;5.75;;;12.00;99.90;;;;;;5032646;28;20214;-77
2021/11/15 01:50:46;;;;;;;5.93;5.32;;;12.00;99.90;;;;;;5014479;28;20293;-77
2021/11/15 01:53:12;;;;;;;7.35;6.65;;;12.00;99.90;;;;;;5030731;28;20165;-77
2021/11/15 01:55:40;;;;;;;7.13;6.20;;;12.00;99.90;;;;;;5032193;28;20249;-77
2021/11/15 01:58:08;;;;;;;6.20;5.60;;;12.00;99.90;;;;;;5030632;28;20174;-77
2021/11/15 02:00:41;;;;;;;6.70;5.45;;;12.00;99.90;;;;;;5014403;28;20197;-77
2021/11/15 02:03:07;;;;;;;7.45;6.32;;;12.00;99.90;;;;;;5032219;28;20170;-77
2021/11/15 02:05:33;;;;;;;6.10;5.50;;;12.00;99.90;;;;;;5030990;28;20268;-77
2021/11/15 02:07:59;;;;;;;7.30;6.60;;;12.00;99.90;;;;;;5030115;28;20249;-81
2021/11/15 02:10:25;;;;;;;7.15;6.50;;;12.00;99.90;;;;;;5031957;28;20310;-81
2021/11/15 02:12:51;;;;;;;7.30;5.95;;;12.00;99.90;;;;;;5030587;28;20180;-80
2021/11/15 02:15:17;;;;;;;6.20;5.47;;;11.90;99.90;;;;;;5031074;28;20174;-81
2021/11/15 02:17:45;;;;;;;7.03;6.33;;;11.90;99.90;;;;;;5031551;28;20996;-81
2021/11/15 02:20:18;;;;;;;8.00;6.97;;;11.90;99.90;;;;;;5032003;28;20198;-81
2021/11/15 02:22:45;;;;;;;5.90;5.32;;;11.90;99.90;;;;;;5036617;28;20165;-80
2021/11/15 02:25:17;;;;;;;8.35;6.78;;;11.90;99.90;;;;;;5032149;28;20177;-80
2021/11/15 02:27:44;;;;;;;6.35;5.32;;;11.90;99.90;;;;;;5030007;28;20170;-80
2021/11/15 02:30:22;;;;;;;7.30;6.70;;;11.90;99.90;;;;;;5030384;28;20221;-81
2021/11/15 02:32:48;;;;;;;5.85;5.35;;;11.90;99.90;;;;;;5030261;28;20181;-81
2021/11/15 02:35:15;;;;;;;6.72;6.03;;;11.90;99.90;;;;;;5030626;28;20185;-81
2021/11/15 02:37:43;;;;;;;6.60;5.00;;;11.90;99.90;;;;;;5029741;28;20170;-81
2021/11/15 02:40:11;;;;;;;7.07;6.00;;;11.90;99.90;;;;;;5031606;28;20243;-81
2021/11/15 02:42:37;;;;;;;5.90;5.30;;;11.90;99.90;;;;;;5030227;28;20245;-81
2021/11/15 02:45:06;;;;;;;5.25;4.30;;;11.90;99.90;;;;;;5030191;28;20653;-81
2021/11/15 02:47:33;;;;;;;6.30;5.70;;;11.90;99.90;;;;;;5029839;28;20223;-81
2021/11/15 02:49:59;;;;;;;6.82;6.07;;;11.90;99.90;;;;;;5013751;28;20566;-81
2021/11/15 02:52:25;;;;;;;7.00;6.30;;;11.90;99.90;;;;;;5030268;28;20174;-81
2021/11/15 02:54:50;;;;;;;6.23;5.63;;;11.90;99.90;;;;;;5031033;28;20665;-81
2021/11/15 02:57:21;;;;;;;6.60;5.93;;;11.90;99.90;;;;;;5031180;28;20576;-81
2021/11/15 02:59:48;;;;;;;8.13;6.10;;;12.00;99.90;;;;;;5036239;28;20598;-81
2021/11/15 03:02:14;;;;;;;7.00;6.07;;;12.00;99.90;;;;;;5030820;28;20169;-81
2021/11/15 03:04:43;;;;;;;7.32;5.57;;;12.00;99.90;;;;;;5030126;28;20212;-81
2021/11/15 03:07:08;;;;;;;5.70;5.10;;;12.00;99.90;;;;;;5029885;28;20220;-80
2021/11/15 03:09:36;;;;;;;5.53;5.03;;;12.00;99.90;;;;;;5031640;28;20588;-81
2021/11/15 03:12:02;;;;;;;5.72;5.13;;;12.00;99.90;;;;;;5031301;28;20174;-81
2021/11/15 03:14:28;;;;;;;7.13;6.10;;;12.00;99.90;;;;;;5031570;28;20257;-81
2021/11/15 03:16:54;;;;;;;6.23;5.23;;;12.00;99.90;;;;;;5030813;28;20573;-81
2021/11/15 03:19:20;;;;;;;6.63;5.57;;;12.00;99.90;;;;;;5030941;28;20296;-81
2021/11/15 03:21:45;;;;;;;8.00;6.07;;;12.00;99.90;;;;;;5030033;28;20572;-81
2021/11/15 03:24:11;;;;;;;6.07;5.03;;;12.00;99.90;;;;;;5031252;28;20173;-81
2021/11/15 03:26:37;;;;;;;6.97;5.83;;;12.00;99.90;;;;;;5030677;28;20638;-80
2021/11/15 03:29:03;;;;;;;6.73;5.43;;;12.00;99.90;;;;;;5031719;28;20276;-80
2021/11/15 03:31:34;;;;;;;6.40;5.27;;;12.00;99.90;;;;;;5030580;28;21092;-80
2021/11/15 03:34:06;;;;;;;8.23;5.80;;;12.00;99.90;;;;;;5029923;28;20178;-80
2021/11/15 03:36:33;;;;;;;5.65;4.95;;;12.00;99.90;;;;;;5036829;28;20166;-80
2021/11/15 03:38:59;;;;;;;6.63;6.00;;;12.00;99.90;;;;;;5031446;28;20186;-81
2021/11/15 03:41:27;;;;;;;5.82;5.30;;;11.90;99.90;;;;;;5030220;28;20653;-80
2021/11/15 03:43:53;;;;;;;7.30;5.70;;;11.90;99.90;;;;;;5030820;28;20174;-81
2021/11/15 03:46:20;;;;;;;6.17;5.20;;;11.90;99.90;;;;;;5030490;28;20166;-80
2021/11/15 03:48:46;;;;;;;6.97;6.25;;;11.90;99.90;;;;;;5030818;28;20209;-80
2021/11/15 03:51:12;;;;;;;6.03;5.53;;;11.80;99.90;;;;;;5030000;28;20663;-80
2021/11/15 03:53:41;;;;;;;6.67;6.03;;;11.80;99.90;;;;;;5030867;28;20194;-80
2021/11/15 03:56:11;;;;;;;6.15;5.55;;;11.80;99.90;;;;;;5031392;28;21123;-81
2021/11/15 03:58:42;;;;;;;5.85;5.15;;;11.80;99.90;;;;;;5033410;28;20564;-81
2021/11/15 04:01:09;;;;;;;6.63;5.20;;;11.80;99.90;;;;;;5040694;28;20180;-80
2021/11/15 04:03:37;;;;;;;5.75;5.05;;;11.70;99.90;;;;;;5036729;28;20253;-80
2021/11/15 04:06:24;;;;;;;6.88;6.10;;;11.70;99.90;;;;;;5040515;28;20169;-81
2021/11/15 04:09:01;;;;;;;6.05;5.45;;;11.70;99.90;;;;;;5047058;28;20200;-80
2021/11/15 04:11:30;;;;;;;5.25;4.75;;;11.70;99.90;;;;;;5034718;28;20204;-80
2021/11/15 04:14:00;;;;;;;6.13;4.88;;;11.70;99.90;;;;;;5038987;28;20166;-81
2021/11/15 04:16:26;;;;;;;5.90;4.10;;;11.70;99.90;;;;;;5034036;28;20208;-81
2021/11/15 04:18:59;;;;;;;6.90;6.00;;;11.70;99.90;;;;;;5034349;28;20606;-80
2021/11/15 04:21:32;;;;;;;5.70;5.05;;;11.70;99.90;;;;;;5055727;23;20673;-80
2021/11/15 04:23:58;;;;;;;6.88;6.18;;;11.80;99.90;;;;;;5027866;28;20177;-80
2021/11/15 04:26:24;;;;;;;7.63;6.93;;;11.80;99.90;;;;;;5037162;28;20173;-80
2021/11/15 04:28:50;;;;;;;6.10;5.50;;;11.80;99.90;;;;;;5033857;28;20169;-81
2021/11/15 04:31:16;;;;;;;5.90;5.23;;;11.80;99.90;;;;;;5019653;28;20213;-81
2021/11/15 04:33:42;;;;;;;6.40;5.80;;;11.80;99.90;;;;;;4996368;28;20596;-81
2021/11/15 04:36:07;;;;;;;5.70;5.10;;;11.80;99.90;;;;;;5007602;28;20612;-81
2021/11/15 04:38:33;;;;;;;6.70;5.17;;;11.80;99.90;;;;;;4995832;28;20310;-81
2021/11/15 04:41:06;;;;;;;5.73;4.70;;;11.80;99.90;;;;;;4987587;28;20626;-81
2021/11/15 04:43:32;;;;;;;4.32;3.92;;;11.80;99.90;;;;;;5006974;28;20186;-81
2021/11/15 04:45:58;;;;;;;5.53;4.60;;;11.80;99.90;;;;;;5014157;28;20253;-81
2021/11/15 04:48:26;;;;;;;5.80;4.90;;;11.80;99.90;;;;;;5033363;28;20579;-81
2021/11/15 04:51:01;;;;;;;6.20;4.80;;;11.80;99.90;;;;;;5013325;28;20210;-81
2021/11/15 04:53:36;;;;;;;5.28;4.45;;;11.80;99.90;;;;;;4995930;28;20664;-81
2021/11/15 04:56:02;;;;;;;6.18;5.57;;;11.80;99.90;;;;;;5014425;28;20506;-81
2021/11/15 04:58:28;;;;;;;6.77;5.83;;;11.80;99.90;;;;;;5011940;28;20229;-82
2021/11/15 05:00:55;;;;;;;5.60;5.00;;;11.80;99.90;;;;;;5031209;28;21174;-81
2021/11/15 05:03:24;;;;;;;6.20;5.05;;;11.80;99.90;;;;;;5032645;28;20563;-81
2021/11/15 05:05:52;;;;;;;6.10;5.50;;;11.80;99.90;;;;;;4996116;28;20455;-82
2021/11/15 05:08:18;;;;;;;6.88;5.47;;;11.80;99.90;;;;;;5032039;28;20177;-82
2021/11/15 05:10:44;;;;;;;6.70;5.20;;;11.80;99.90;;;;;;5032720;28;20197;-81
2021/11/15 05:13:10;;;;;;;6.50;5.47;;;11.80;99.90;;;;;;5032700;28;20174;-82
2021/11/15 05:15:36;;;;;;;6.70;5.67;;;11.80;99.90;;;;;;5011876;28;20600;-82
2021/11/15 05:18:01;;;;;;;6.57;5.87;;;11.80;99.90;;;;;;5031556;28;20261;-82
2021/11/15 05:20:27;;;;;;;6.73;5.80;;;11.80;99.90;;;;;;5032223;28;20209;-81
2021/11/15 05:22:53;;;;;;;6.80;5.97;;;11.80;99.90;;;;;;5032654;28;20524;-82
2021/11/15 05:25:20;;;;;;;5.83;5.23;;;11.90;99.90;;;;;;5032468;28;20717;-82
2021/11/15 05:27:46;;;;;;;6.50;5.55;;;11.90;99.90;;;;;;5031942;28;20565;-82
2021/11/15 05:30:14;;;;;;;5.05;4.53;;;11.90;99.90;;;;;;5032297;28;20254;-82
2021/11/15 05:32:40;;;;;;;5.50;4.95;;;11.90;99.90;;;;;;5032500;28;20248;-81
2021/11/15 05:35:06;;;;;;;6.93;5.93;;;11.90;99.90;;;;;;5032458;28;20200;-82
2021/11/15 05:37:32;;;;;;;5.53;4.78;;;11.90;99.90;;;;;;5031664;28;21054;-81
2021/11/15 05:39:58;;;;;;;5.90;5.30;;;11.90;99.90;;;;;;5032789;28;20185;-81
2021/11/15 05:42:24;;;;;;;7.70;5.80;;;11.90;99.90;;;;;;5031827;28;20172;-81
2021/11/15 05:44:49;;;;;;;7.00;6.20;;;11.90;99.90;;;;;;5032078;28;20925;-81
2021/11/15 05:47:15;;;;;;;7.00;5.57;;;11.90;99.90;;;;;;5031730;28;20255;-82
2021/11/15 05:49:41;;;;;;;7.30;6.53;;;11.90;99.90;;;;;;5032218;28;20624;-82
2021/11/15 05:52:08;;;;;;;6.10;5.53;;;11.90;99.90;;;;;;5014270;28;20206;-82
2021/11/15 05:54:34;;;;;;;7.10;6.40;;;11.90;99.90;;;;;;4994584;28;20270;-82
2021/11/15 05:57:02;;;;;;;7.97;5.80;;;11.90;99.90;;;;;;5030120;28;20595;-82
2021/11/15 05:59:28;;;;;;;6.38;5.50;;;11.90;99.90;;;;;;5010950;28;20561;-82
2021/11/15 06:01:54;;;;;;;6.00;5.00;;;11.90;99.90;;;;;;4996285;28;20198;-82
2021/11/15 06:04:20;;;;;;;6.80;6.10;;;11.90;99.90;;;;;;4994409;28;20174;-82
2021/11/15 06:06:47;;;;;;;5.27;4.80;;;11.90;99.90;;;;;;5010887;28;20581;-82
2021/11/15 06:09:12;;;;;;;7.00;5.05;;;11.90;99.90;;;;;;5010918;28;20221;-82
2021/11/15 06:11:38;;;;;;;6.60;6.00;;;11.90;99.90;;;;;;5027595;28;20194;-82
2021/11/15 06:14:04;;;;;;;6.63;5.80;;;11.90;99.90;;;;;;5013261;28;20561;-82
2021/11/15 06:16:31;;;;;;;6.83;5.73;;;11.80;99.90;;;;;;4994892;28;20191;-81
2021/11/15 06:18:56;;;;;;;5.68;5.07;;;11.80;99.90;;;;;;5029453;28;20196;-82
2021/11/15 06:21:22;;;;;;;6.93;5.87;;;11.80;99.90;;;;;;5031783;28;20292;-81
2021/11/15 06:23:48;;;;;;;5.43;4.93;;;11.80;99.90;;;;;;5031611;28;20166;-82
2021/11/15 06:26:14;;;;;;;7.23;6.10;;;11.80;99.90;;;;;;5030873;28;20253;-80
2021/11/15 06:28:40;;;;;;;6.80;5.00;;;11.80;99.90;;;;;;5010597;28;20198;-81
2021/11/15 06:31:11;;;;;;;6.75;5.60;;;11.90;99.90;;;;;;4997105;28;20229;-80
2021/11/15 06:33:37;;;;;;;6.80;5.60;;;11.80;99.90;;;;;;4994449;28;20554;-82
2021/11/15 06:36:03;;;;;;;6.85;6.10;;;11.80;99.90;;;;;;5030550;28;20174;-80
2021/11/15 06:38:29;;;;;;;6.22;5.45;;;11.80;99.90;;;;;;5029877;28;20170;-80
2021/11/15 06:40:55;;;;;;;7.70;6.90;;;11.80;99.90;;;;;;5029698;28;20244;-80
2021/11/15 06:43:20;;;;;;;7.10;5.37;;;11.80;99.90;;;;;;5010535;28;20175;-81
2021/11/15 06:45:46;;;;;;;7.00;6.20;;;11.80;99.90;;;;;;5027768;28;20587;-80
2021/11/15 06:48:12;;;;;;;6.97;6.27;;;11.80;99.90;;;;;;5030822;28;20170;-79
2021/11/15 06:50:38;;;;;;;6.27;5.63;;;11.80;99.90;;;;;;5030994;28;20198;-81
2021/11/15 06:53:04;;;;;;;7.73;6.40;;;11.80;99.90;;;;;;5031533;28;20166;-81
2021/11/15 06:55:31;;;;;;;7.78;6.97;;;11.80;99.90;;;;;;5010130;28;20544;-81
2021/11/15 06:57:57;;;;;;;9.52;7.45;;;11.80;99.90;;;;;;5011659;28;20245;-81
2021/11/15 07:00:26;;;;;;;8.32;7.18;;;11.80;99.90;;;;;;5010345;28;20289;-82
2021/11/15 07:02:53;;;;;;;7.93;6.13;;;11.80;99.90;;;;;;5021138;28;20530;-81
2021/11/15 07:05:30;;;;;;;6.90;6.20;;;11.80;99.90;;;;;;5023555;28;20602;-82
2021/11/15 07:08:03;;;;;;;7.63;5.80;;;11.80;99.90;;;;;;4996204;28;20181;-81
2021/11/15 07:10:34;;;;;;;7.95;6.70;;;11.80;99.90;;;;;;5009918;28;20252;-82
2021/11/15 07:12:59;;;;;;;6.28;5.63;;;11.80;99.90;;;;;;5012002;28;20247;-81
2021/11/15 07:15:25;;;;;;;7.77;6.23;;;11.80;99.90;;;;;;5013751;28;20269;-81
2021/11/15 07:17:51;;;;;;;7.73;6.53;;;11.80;99.90;;;;;;5030647;28;20169;-83
2021/11/15 07:20:17;;;;;;;7.63;6.73;;;11.80;99.90;;;;;;5031340;28;20726;-83
2021/11/15 07:22:44;;;;;;;9.73;6.70;;;11.80;99.90;;;;;;5013810;28;20178;-80
2021/11/15 07:25:10;;;;;;;8.52;5.72;;;11.80;99.90;;;;;;5032474;28;20580;-84
2021/11/15 07:27:35;;;;;;;9.50;7.27;;;11.80;99.90;;;;;;5013751;28;20174;-82
2021/11/15 07:30:04;;;;;;;7.73;6.07;;;11.80;99.90;;;;;;5017762;28;20217;-82
2021/11/15 07:32:31;;;;;;;8.15;7.25;;;11.80;99.90;;;;;;5001873;28;20177;-81
2021/11/15 07:34:56;;;;;;;7.60;6.80;;;11.80;99.90;;;;;;5001799;28;20257;-82
2021/11/15 07:37:22;;;;;;;7.30;6.17;;;11.80;99.90;;;;;;5034676;28;20311;-81
2021/11/15 07:39:48;;;;;;;8.47;5.93;;;11.80;99.90;;;;;;5001336;28;20645;-81
2021/11/15 07:42:17;;;;;;;7.53;6.80;;;11.80;99.90;;;;;;5019531;28;20249;-83
2021/11/15 07:44:44;;;;;;;7.97;6.90;;;11.80;99.90;;;;;;5018909;28;20174;-82
2021/11/15 07:47:10;;;;;;;7.13;5.47;;;11.80;99.90;;;;;;5018424;28;20169;-82
2021/11/15 07:49:36;;;;;;;7.85;6.63;;;11.80;99.90;;;;;;5036405;28;20205;-83
2021/11/15 07:52:03;;;;;;;7.30;6.00;;;11.80;99.90;;;;;;5017833;28;20202;-83
2021/11/15 07:54:29;;;;;;;6.57;5.78;;;11.80;99.90;;;;;;4999111;28;20167;-83
2021/11/15 07:56:55;;;;;;;7.55;6.55;;;11.90;99.90;;;;;;5031912;28;20165;-83
2021/11/15 07:59:21;;;;;;;6.72;5.57;;;11.80;99.90;;;;;;5037457;28;20181;-81
2021/11/15 08:01:47;;;;;;;6.90;5.47;;;11.90;99.90;;;;;;5025257;28;20551;-77
2021/11/15 08:04:13;;;;;;;5.70;5.10;;;11.90;99.90;;;;;;4981512;28;20174;-77
2021/11/15 08:06:39;;;;;;;6.65;5.97;;;11.90;99.90;;;;;;5017886;28;20562;-76
2021/11/15 08:09:05;;;;;;;7.70;6.07;;;11.90;99.90;;;;;;4998879;28;20167;-77
2021/11/15 08:11:32;;;;;;;7.80;5.87;;;11.90;99.90;;;;;;5029351;28;20189;-76
2021/11/15 08:13:58;;;;;;;6.72;4.68;;;11.90;99.90;;;;;;5015945;28;20982;-76
2021/11/15 08:16:27;;;;;;;7.75;6.15;;;11.90;99.90;;;;;;5015939;28;20166;-77
2021/11/15 08:18:53;;;;;;;7.65;6.38;;;11.90;99.90;;;;;;5033658;28;20823;-77
2021/11/15 08:21:26;;;;;;;6.50;5.40;;;11.90;99.90;;;;;;5015535;28;20212;-77
2021/11/15 08:23:53;;;;;;;7.65;6.88;;;11.90;99.90;;;;;;4999455;28;20173;-76
2021/11/15 08:26:32;;;;;;;7.40;5.70;;;12.00;99.90;;;;;;4997398;28;20166;-76
2021/11/15 08:29:11;;;;;;;6.40;5.75;;;12.00;99.90;;;;;;5015794;28;20192;-77
2021/11/15 08:31:38;;;;;;;5.80;5.00;;;12.00;99.90;;;;;;5033508;28;20661;-77
2021/11/15 08:34:08;;;;;;;7.50;6.13;;;12.00;99.90;;;;;;5032907;28;20176;-77
2021/11/15 08:36:34;;;;;;;6.53;5.20;;;12.00;99.90;;;;;;4996702;28;20178;-76
2021/11/15 08:39:04;;;;;;;6.53;5.35;;;12.00;99.90;;;;;;5014216;28;20232;-76
2021/11/15 08:41:34;;;;;;;5.97;5.13;;;12.00;99.90;;;;;;5031877;28;20217;-76
2021/11/15 08:44:04;;;;;;;8.30;6.10;;;12.00;99.90;;;;;;5034818;28;20232;-76
2021/11/15 08:46:31;;;;;;;6.55;5.18;;;12.00;99.90;;;;;;5014258;28;20239;-76
2021/11/15 08:48:58;;;;;;;5.85;4.72;;;12.00;99.90;;;;;;5014856;28;20185;-76
2021/11/15 08:51:25;;;;;;;7.47;5.60;;;12.00;99.90;;;;;;5033348;28;20247;-74
2021/11/15 08:53:53;;;;;;;6.47;5.47;;;12.00;99.90;;;;;;5016243;28;20166;-78
2021/11/15 08:56:19;;;;;;;6.60;5.90;;;12.00;99.90;;;;;;5016094;28;20174;-81
2021/11/15 08:58:48;;;;;;;8.02;6.20;;;12.00;99.90;;;;;;5017037;28;20173;-81
2021/11/15 09:01:17;;;;;;;6.60;5.40;;;12.00;99.90;;;;;;5015880;28;20441;-82
2021/11/15 09:03:44;;;;;;;6.93;5.47;;;12.00;99.90;;;;;;5015766;28;20189;-82
2021/11/15 09:06:11;;;;;;;6.93;5.15;;;12.10;99.90;;;;;;5015212;28;20268;-81
2021/11/15 09:08:39;;;;;;;6.78;4.88;;;12.10;99.90;;;;;;5031230;28;20709;-80
2021/11/15 09:11:05;;;;;;;7.90;4.82;;;12.10;99.90;;;;;;5020074;28;20213;-80
2021/11/15 09:13:32;;;;;;;5.95;5.32;;;12.00;99.90;;;;;;5024506;28;20180;-80
2021/11/15 09:15:58;;;;;;;6.70;4.95;;;12.10;99.90;;;;;;5007303;28;20538;-82
2021/11/15 09:18:24;;;;;;;5.70;5.00;;;12.10;99.90;;;;;;4996312;28;20182;-82
2021/11/15 09:20:50;;;;;;;5.97;5.37;;;12.10;99.90;;;;;;4997744;28;20666;-81
2021/11/15 09:23:16;;;;;;;6.23;5.13;;;12.10;99.90;;;;;;5016919;28;21117;-82
2021/11/15 09:25:42;;;;;;;5.00;4.03;;;12.10;99.90;;;;;;5014201;28;20573;-83
2021/11/15 09:28:10;;;;;;;5.15;4.65;;;12.00;99.90;;;;;;5013363;28;20565;-81
2021/11/15 09:30:38;;;;;;;7.18;5.38;;;12.00;99.90;;;;;;5013373;28;20634;-81
2021/11/15 09:33:05;;;;;;;5.90;4.78;;;12.00;99.90;;;;;;4996272;28;20584;-82
2021/11/15 09:35:32;;;;;;;5.70;5.10;;;12.00;99.90;;;;;;5014033;28;20173;-82
2021/11/15 09:38:01;;;;;;;6.43;5.30;;;12.10;99.90;;;;;;4996563;28;20170;-82
2021/11/15 09:40:26;;;;;;;4.38;3.97;;;12.10;99.90;;;;;;5013797;28;20558;-82
2021/11/15 09:42:56;;;;;;;6.33;5.27;;;12.00;99.90;;;;;;4996159;28;20225;-83
2021/11/15 09:45:25;;;;;;;6.10;5.15;;;12.00;99.90;;;;;;5013803;28;20175;-82
2021/11/15 09:47:55;;;;;;;5.30;4.78;;;12.10;99.90;;;;;;5015633;28;20180;-83
2021/11/15 09:50:21;;;;;;;5.65;4.38;;;12.10;99.90;;;;;;5014873;28;20205;-81
2021/11/15 09:52:48;;;;;;;6.40;4.90;;;12.10;99.90;;;;;;5031946;28;20439;-83
2021/11/15 09:55:15;;;;;;;7.18;4.95;;;12.10;99.90;;;;;;5017410;28;20182;-83
2021/11/15 09:57:44;;;;;;;6.57;4.97;;;12.10;99.90;;;;;;5013425;28;20182;-82
2021/11/15 10:00:15;;;;;;;5.82;4.97;;;12.00;99.90;;;;;;5017125;28;20194;-82
2021/11/15 10:02:41;;;;;;;6.55;4.75;;;12.00;99.90;;;;;;5013318;28;20236;-82
2021/11/15 10:05:08;;;;;;;6.78;5.32;;;12.00;99.90;;;;;;4996790;28;20305;-82
2021/11/15 10:07:42;;;;;;;5.38;4.88;;;12.00;99.90;;;;;;4996214;28;20181;-82
2021/11/15 10:10:28;;;;;;;5.95;4.80;;;12.00;99.90;;;;;;5015174;28;20251;-83
2021/11/15 10:13:23;;;;;;;6.97;5.32;;;12.00;99.90;;;;;;4994942;28;20217;-83
2021/11/15 10:15:49;;;;;;;5.78;4.70;;;12.00;99.90;;;;;;5015301;28;20245;-83
2021/11/15 10:18:29;;;;;;;5.30;4.73;;;12.10;99.90;;;;;;4995740;28;20201;-82
2021/11/15 10:20:55;;;;;;;5.57;4.95;;;12.10;99.90;;;;;;4995491;28;20213;-82
2021/11/15 10:23:35;;;;;;;6.17;5.10;;;12.10;99.90;;;;;;4995289;28;20222;-83
2021/11/15 10:26:11;;;;;;;6.43;4.90;;;12.10;99.90;;;;;;4995745;28;20996;-82
2021/11/15 10:28:37;;;;;;;6.65;5.50;;;12.10;99.90;;;;;;5012575;28;20221;-81
2021/11/15 10:31:03;;;;;;;7.00;5.67;;;12.10;99.90;;;;;;5012707;28;20260;-81
2021/11/15 10:33:48;;;;;;;6.23;5.63;;;12.10;99.90;;;;;;4996622;28;20582;-82
2021/11/15 10:36:13;;;;;;;6.00;5.22;;;12.00;99.90;;;;;;5017993;28;20600;-83
2021/11/15 10:38:43;;;;;;;5.97;4.83;;;12.10;99.90;;;;;;5001129;28;20185;-83
2021/11/15 10:41:19;;;;;;;8.05;5.93;;;12.10;99.90;;;;;;5021838;28;20201;-83
2021/11/15 10:43:46;;;;;;;7.05;5.68;;;12.10;99.90;;;;;;4997112;28;20220;-84
2021/11/15 10:46:32;;;;;;;8.35;6.57;;;12.10;99.90;;;;;;4998706;28;20694;-84
2021/11/15 10:48:59;;;;;;;10.30;5.28;;;12.10;99.90;;;;;;4997179;28;20232;-83
2021/11/15 10:51:54;;;;;;;6.55;5.85;;;12.10;99.90;;;;;;4978251;28;20547;-82
2021/11/15 10:55:03;;;;;;;6.72;4.63;;;12.10;99.90;;;;;;4993997;28;20189;-80
2021/11/15 10:57:44;;;;;;;5.85;5.25;;;12.10;99.90;;;;;;4993766;28;20166;-82
2021/11/15 11:00:15;;;;;;;7.90;5.00;;;12.20;99.90;;;;;;5006235;28;20201;-82
2021/11/15 11:02:49;;;;;;;6.85;5.90;;;12.20;99.90;;;;;;4987917;28;20650;-82
2021/11/15 11:05:16;;;;;;;9.60;5.40;;;12.20;99.90;;;;;;5013245;28;20545;-82
2021/11/15 11:07:45;;;;;;;6.60;5.30;;;12.20;99.90;;;;;;5000187;28;20182;-82
2021/11/15 11:10:13;;;;;;;5.45;4.20;;;12.20;99.90;;;;;;5015204;28;20248;-83
2021/11/15 11:12:45;;;;;;;7.57;5.25;;;12.30;99.90;;;;;;5019238;28;20162;-84
2021/11/15 11:15:46;;;;;;;6.10;4.97;;;12.30;99.90;;;;;;5004261;28;20380;-82
2021/11/15 11:18:21;;;;;;;7.03;5.15;;;12.30;99.90;;;;;;5034867;28;20513;-82
2021/11/15 11:21:28;;;;;;;7.85;5.97;;;12.30;99.90;;;;;;5035171;28;20204;-83
2021/11/15 11:26:36;;;;;;;6.40;5.72;;;12.20;99.90;;;;;;4999905;28;20184;-82
2021/11/15 11:29:27;;;;;;;8.02;6.53;;;12.30;99.90;;;;;;5034521;28;20224;-81
2021/11/15 11:31:57;;;;;;;6.75;6.05;;;12.30;99.90;;;;;;4996616;28;20206;-80
2021/11/15 11:34:25;;;;;;;5.60;5.00;;;12.30;99.90;;;;;;5014735;28;20224;-81
2021/11/15 11:36:52;;;;;;;8.93;6.15;;;12.30;99.90;;;;;;4997048;28;20167;-81
2021/11/15 11:39:19;;;;;;;7.20;6.05;;;12.30;99.90;;;;;;5014855;28;20170;-82
2021/11/15 11:41:53;;;;;;;7.60;6.43;;;12.20;99.90;;;;;;5014354;28;20195;-81
2021/11/15 11:44:19;;;;;;;7.70;6.53;;;12.20;99.90;;;;;;5013615;28;20533;-81
2021/11/15 11:46:46;;;;;;;7.78;6.40;;;12.20;99.90;;;;;;5014402;28;20167;-82
2021/11/15 11:49:17;;;;;;;8.50;5.93;;;12.20;99.90;;;;;;5001618;28;20185;-82
2021/11/15 11:51:47;;;;;;;6.78;5.80;;;12.20;99.90;;;;;;5014941;28;20229;-81
2021/11/15 11:54:19;;;;;;;7.00;5.70;;;12.30;99.90;;;;;;5014824;28;20181;-81
2021/11/15 11:57:20;;;;;;;7.10;5.70;;;12.30;99.90;;;;;;4999071;28;20167;-80
2021/11/15 11:59:46;;;;;;;7.53;5.43;;;12.20;99.90;;;;;;4969473;28;20190;-81
2021/11/15 12:02:17;;;;;;;7.13;6.40;;;12.20;99.90;;;;;;5015078;28;20190;-81
2021/11/15 12:04:52;;;;;;;5.80;5.07;;;12.20;99.90;;;;;;4996495;28;20178;-81
2021/11/15 12:07:37;;;;;;;8.13;6.18;;;12.20;99.90;;;;;;4994309;28;20192;-81
2021/11/15 12:10:09;;;;;;;6.70;5.50;;;12.30;99.90;;;;;;5016025;28;20636;-80
2021/11/15 12:12:54;;;;;;;7.53;6.05;;;12.30;99.90;;;;;;5033285;28;20244;-80
2021/11/15 12:15:39;;;;;;;7.55;5.85;;;12.30;99.90;;;;;;5000145;28;20592;-82
2021/11/15 12:18:24;;;;;;;7.25;5.70;;;12.30;99.90;;;;;;5032942;28;20174;-83
2021/11/15 12:21:05;;;;;;;7.18;5.90;;;12.30;99.90;;;;;;5000225;28;20584;-82
2021/11/15 12:23:39;;;;;;;13.32;6.30;;;12.30;99.90;;;;;;5000048;28;20177;-84
2021/11/15 12:26:25;;;;;;;5.95;5.05;;;12.30;99.90;;;;;;5034749;28;20231;-82
2021/11/15 12:28:59;;;;;;;8.60;7.18;;;12.20;99.90;;;;;;5016091;28;20534;-82
2021/11/15 12:31:43;;;;;;;7.43;6.32;;;12.10;99.90;;;;;;5033646;28;20208;-83
2021/11/15 12:34:09;;;;;;;10.05;6.22;;;12.10;99.90;;;;;;5013003;28;20230;-83
2021/11/15 12:36:46;;;;;;;7.93;6.20;;;12.00;99.90;;;;;;5019700;28;20166;-82
2021/11/15 12:39:25;;;;;;;7.65;5.53;;;12.00;99.90;;;;;;5009762;28;20260;-83
2021/11/15 12:41:53;;;;;;;9.00;6.20;;;12.00;99.90;;;;;;5034420;28;20194;-84
2021/11/15 12:44:23;;;;;;;8.23;5.68;;;12.00;99.90;;;;;;5027924;28;20201;-83
2021/11/15 12:46:49;;;;;;;7.10;5.60;;;12.00;99.90;;;;;;5031924;28;20173;-82
2021/11/15 12:49:19;;;;;;;6.70;5.85;;;12.00;99.90;;;;;;5033789;28;20534;-81
2021/11/15 12:52:08;;;;;;;9.15;6.35;;;12.00;99.90;;;;;;5015339;28;20190;-81
2021/11/15 12:54:39;;;;;;;7.80;6.25;;;12.00;99.90;;;;;;4995447;28;20167;-82
2021/11/15 12:57:17;;;;;;;8.00;7.10;;;12.00;99.90;;;;;;5035713;28;20503;-80